»·PEaware :: SWA1841 KSAN-KLAS

SWA1841 :: KSAN-KLAS

FLIGHT INFORMATION

Flight Status: Arrived
Operator:
Southwest Airlines
More flights by this operator :: More flights under this callsign
Pilot: Cody B. (17747)
Aircraft: BOEING 737-800
(B738)
More flights by this aircraft type
Origin: KSAN San Diego Intl-Lindbergh
United States
Destination: KLAS McCarran Intl
United States
More flights between these airports :: More routes between these airports
Route: +PADRZ2 CHCKN SEBBY YELAH MISEN KEPEC6
File this flight plan on PilotEdge
Remarks:
Altitude:
(Current/Filed)
29,000ft
Speed:
(Current/Filed)
450kts
Departed: 05-Jan-18 10:08 AM
Arrived: 05-Jan-18 11:03 AM
Distance/Time
Traveled:
225nm/0:54
Distance/Time
To Go:
Arrived

Flight Plot

Page will automatically refresh every two minutes.

Flight plan parsing failed; only flown route is shown


Map Options




Map Legend


Flown Route
Filed Route
Departure Airport
Arrival Airport
Navaid (VOR, NDB)
Fix

Horizontal Profiles

Position Reports

Time Latitude Longitude Heading Altitude Ground
Speed
05-Jan-18 09:27 32.732859 -117.195452 278 20ft 0kts
05-Jan-18 09:28 32.732859 -117.195452 278 20ft 0kts
05-Jan-18 09:29 32.732859 -117.195452 278 20ft 0kts
05-Jan-18 09:30 32.732859 -117.195452 278 20ft 0kts
05-Jan-18 09:31 32.732859 -117.195452 278 20ft 0kts
05-Jan-18 09:32 32.732859 -117.195452 278 20ft 0kts
05-Jan-18 09:33 32.732859 -117.195452 278 20ft 0kts
05-Jan-18 09:34 32.732859 -117.195452 278 20ft 0kts
05-Jan-18 09:35 32.732859 -117.195452 278 20ft 0kts
05-Jan-18 09:36 32.732859 -117.195452 278 20ft 0kts
05-Jan-18 09:37 32.732859 -117.195452 278 20ft 0kts
05-Jan-18 09:38 32.732859 -117.195452 278 20ft 0kts
05-Jan-18 09:39 32.732859 -117.195452 278 20ft 0kts
05-Jan-18 09:40 32.732859 -117.195452 278 20ft 0kts
05-Jan-18 09:41 32.732859 -117.195452 278 20ft 0kts
05-Jan-18 09:42 32.732859 -117.195452 278 20ft 0kts
05-Jan-18 09:43 32.732859 -117.195452 278 20ft 0kts
05-Jan-18 09:44 32.732859 -117.195452 278 20ft 0kts
05-Jan-18 09:45 32.732859 -117.195452 278 20ft 0kts
05-Jan-18 09:46 32.732859 -117.195452 278 20ft 0kts
05-Jan-18 09:47 32.732859 -117.195452 278 20ft 0kts
05-Jan-18 09:48 32.732859 -117.195452 278 20ft 0kts
05-Jan-18 09:49 32.732859 -117.195452 278 20ft 0kts
05-Jan-18 09:50 32.732859 -117.195452 278 20ft 0kts
05-Jan-18 09:51 32.732859 -117.195452 278 20ft 0kts
05-Jan-18 09:52 32.732859 -117.195452 278 20ft 0kts
05-Jan-18 09:53 32.732859 -117.195452 278 20ft 0kts
05-Jan-18 09:54 32.732859 -117.195452 278 20ft 0kts
05-Jan-18 09:55 32.732859 -117.195452 278 20ft 0kts
05-Jan-18 09:56 32.732859 -117.195452 278 20ft 0kts
05-Jan-18 09:57 32.732859 -117.195452 278 20ft 0kts
05-Jan-18 09:58 32.732859 -117.195452 278 20ft 0kts
05-Jan-18 09:59 32.732859 -117.195452 278 20ft 0kts
05-Jan-18 10:00 32.732850 -117.195384 278 20ft 2kts
05-Jan-18 10:01 32.732671 -117.194733 330 21ft 2kts
05-Jan-18 10:02 32.732345 -117.194764 30 21ft 0kts
05-Jan-18 10:03 32.732345 -117.194764 30 21ft 0kts
05-Jan-18 10:04 32.732345 -117.194764 30 21ft 0kts
05-Jan-18 10:05 32.732789 -117.194470 28 21ft 5kts
05-Jan-18 10:06 32.733400 -117.193282 103 21ft 7kts
05-Jan-18 10:07 32.732518 -117.189640 106 19ft 15kts
05-Jan-18 10:08 32.731284 -117.184548 106 17ft 16kts
05-Jan-18 10:09 32.730088 -117.179623 105 18ft 14kts
05-Jan-18 10:10 32.729523 -117.176688 71 23ft 0kts
05-Jan-18 10:11 32.729523 -117.176687 71 23ft 0kts
05-Jan-18 10:12 32.729841 -117.175924 33 24ft 6kts
05-Jan-18 10:13 32.730964 -117.179008 286 21ft 20kts
05-Jan-18 10:14 32.740732 -117.218340 291 1373ft 197kts
05-Jan-18 10:15 32.777290 -117.282403 306 4346ft 257kts
05-Jan-18 10:16 32.820575 -117.351091 307 7976ft 271kts
05-Jan-18 10:17 32.866452 -117.422173 307 8008ft 272kts
05-Jan-18 10:18 32.905036 -117.482037 306 9758ft 280kts
05-Jan-18 10:19 32.955772 -117.560927 305 12930ft 318kts
05-Jan-18 10:20 33.019511 -117.660499 302 16980ft 339kts
05-Jan-18 10:21 33.080495 -117.747665 314 20210ft 362kts
05-Jan-18 10:22 33.136623 -117.784262 344 22022ft 391kts
05-Jan-18 10:23 33.248064 -117.786095 355 24768ft 413kts
05-Jan-18 10:24 33.360085 -117.784819 354 27589ft 413kts
05-Jan-18 10:25 33.472106 -117.783615 353 29281ft 426kts
05-Jan-18 10:26 33.591584 -117.782474 354 29282ft 471kts
05-Jan-18 10:27 33.721073 -117.781034 354 29270ft 474kts
05-Jan-18 10:28 33.850034 -117.779635 354 29272ft 470kts
05-Jan-18 10:29 33.975982 -117.778223 354 29270ft 470kts
05-Jan-18 10:30 34.100641 -117.748946 27 29301ft 496kts
05-Jan-18 10:31 34.188891 -117.632145 48 29291ft 505kts
05-Jan-18 10:32 34.274894 -117.502472 47 29278ft 507kts
05-Jan-18 10:33 34.363039 -117.371289 46 29296ft 507kts
05-Jan-18 10:34 34.449704 -117.242686 47 29298ft 507kts
05-Jan-18 10:35 34.538437 -117.111159 46 29300ft 505kts
05-Jan-18 10:36 34.627298 -116.979594 46 29284ft 505kts
05-Jan-18 10:37 34.716083 -116.848414 46 29285ft 505kts
05-Jan-18 10:38 34.805374 -116.716605 45 29291ft 504kts
05-Jan-18 10:39 34.897394 -116.600751 30 29017ft 442kts
05-Jan-18 10:40 34.991379 -116.511348 32 26846ft 433kts
05-Jan-18 10:41 35.086164 -116.419541 33 24693ft 435kts
05-Jan-18 10:42 35.165252 -116.325187 43 24299ft 435kts
05-Jan-18 10:43 35.248728 -116.219182 42 23961ft 431kts
05-Jan-18 10:44 35.332880 -116.112653 42 23175ft 439kts
05-Jan-18 10:45 35.414211 -116.009694 42 20642ft 409kts
05-Jan-18 10:46 35.491711 -115.911769 42 18149ft 394kts
05-Jan-18 10:47 35.565043 -115.819199 42 15669ft 368kts
05-Jan-18 10:48 35.635242 -115.730700 42 13757ft 345kts
05-Jan-18 10:49 35.697264 -115.652226 43 13026ft 317kts
05-Jan-18 10:50 35.761872 -115.581148 15 13019ft 310kts
05-Jan-18 10:51 35.828054 -115.520366 60 12299ft 321kts
05-Jan-18 10:52 35.868546 -115.423781 61 11504ft 317kts
05-Jan-18 10:53 35.907862 -115.331067 61 11010ft 315kts
05-Jan-18 10:54 35.948269 -115.235723 66 11006ft 314kts
05-Jan-18 10:55 35.953505 -115.131461 91 10265ft 310kts
05-Jan-18 10:56 35.953296 -115.026589 92 9526ft 305kts
05-Jan-18 10:57 35.953278 -114.925880 90 9328ft 284kts
05-Jan-18 10:58 35.953468 -114.831424 90 9288ft 266kts
05-Jan-18 10:59 35.968174 -114.747313 38 9004ft 256kts
05-Jan-18 11:00 36.029986 -114.747774 312 7985ft 213kts
05-Jan-18 11:01 36.061389 -114.800626 281 7949ft 192kts
05-Jan-18 11:02 36.071337 -114.862515 276 7101ft 175kts
05-Jan-18 11:03 36.073374 -114.918141 270 5997ft 147kts
05-Jan-18 11:04 36.072959 -114.967924 274 4915ft 147kts
05-Jan-18 11:05 36.072389 -115.017379 273 3668ft 141kts
05-Jan-18 11:06 36.073778 -115.063830 270 2830ft 136kts
05-Jan-18 11:07 36.073765 -115.110001 273 2380ft 134kts
05-Jan-18 11:08 36.073628 -115.145450 272 2102ft 59kts
05-Jan-18 11:09 36.074358 -115.149872 294 2118ft 0kts
05-Jan-18 11:10 36.074358 -115.149872 294 2118ft 0kts
05-Jan-18 11:11 36.074485 -115.150173 298 2119ft 4kts
05-Jan-18 11:12 36.076245 -115.151929 335 2122ft 8kts
05-Jan-18 11:13 36.077303 -115.152523 334 2123ft 0kts
05-Jan-18 11:14 36.077341 -115.152544 335 2123ft 1kts
05-Jan-18 11:15 36.078639 -115.152946 53 2122ft 8kts
05-Jan-18 11:16 36.078625 -115.148915 94 2106ft 10kts
05-Jan-18 11:17 36.079876 -115.147207 56 2097ft 1kts
05-Jan-18 11:18 36.079922 -115.147121 56 2096ft 0kts
05-Jan-18 11:19 36.079922 -115.147121 56 2096ft 0kts
05-Jan-18 11:20 36.079922 -115.147121 56 2096ft 0kts

Navigation Log

Ident Type
Flight plan parsing failed, navigation log unavailable